メインページ
METAR-TAF:

METAR-TAF

空港 :

富山空港

富山, 日本

緯度: 36-39N, 経度: 137-11E, 海抜: 24m

現時点の気象観測

当レポートは19分前の22:00(UTC)に作成
西/南西の風 6kt
気温 13°C
湿度 67%
気圧 1018 hPa
視程10km以上
高度2000ftの雲はほとんどない
高度6000ftの千切れ雲あり
弱いにわか雨

METAR: RJNT 162200Z 25006KT 9999 -SHRA FEW020 BKN060 13/07 Q1018

時間: 07:19 (22:19 UTC)

予報

当レポートは5時間14分前の17:05(UTC)に作成
予報は16日の 18時(UTC)から 18日の 00時(UTC)まで有効
の風 8kt
視程10km以上
高度3000ftの雲はほとんどない
高度6000ftの雲は散在している
16日の 21時(UTC)から 16日の 23時(UTC)まで徐々に
北/北東の風 5kt
16日の 22時(UTC)から 17日の 01時(UTC)まで一時的に
視程: 4000m
高度500ftの雲はほとんどない
高度800ftの千切れ雲あり
にわか雨, 靄
17日の 12時(UTC)から 17日の 15時(UTC)まで徐々に
南/南西の風 4kt

TAF: RJNT 161705Z 1618/1800 18008KT 9999 FEW030 SCT060 BECMG 1621/1623 02005KT TEMPO 1622/1701 4000 SHRA BR FEW005 BKN008 BECMG 1712/1715 20004KT

4,000以上の空港の気象観測と天気予報(METAR報とTAF報)

利用可能な観測所は地図上に黄色い丸と赤い丸で示す。

丸の上にカーソルを重ねると観測所名を参照できる。

次にクリックすると気象観測と天気予報を参照できる。

マップの切り替え:黒色「×」印の緑ボタンをクリックして拡大、「-」印の緑ボタンをクリックして縮小、緑色の三角印をクリックして隣りの地図に切り替え


METAR-TAF: